createdAt,value
2023-03-02T00:07:51.243Z,15.48
2023-03-02T00:17:52.501Z,15.98
2023-03-02T00:27:54.311Z,15.70
2023-03-02T00:37:55.564Z,15.77
2023-03-02T00:47:56.806Z,16.05
2023-03-02T00:57:58.051Z,16.20
2023-03-02T01:07:59.309Z,16.33
2023-03-02T01:18:00.608Z,16.60
2023-03-02T01:28:01.797Z,15.55
2023-03-02T01:38:03.244Z,16.67
2023-03-02T01:48:04.449Z,16.02
2023-03-02T01:58:05.719Z,16.60
2023-03-02T02:08:06.958Z,16.42
2023-03-02T02:18:08.196Z,17.00
2023-03-02T02:28:09.420Z,17.20
2023-03-02T02:38:10.881Z,17.42
2023-03-02T02:48:12.113Z,17.35
2023-03-02T02:58:13.345Z,16.30
2023-03-02T03:08:14.582Z,16.70
2023-03-02T03:18:15.938Z,16.83
2023-03-02T03:28:18.021Z,17.05
2023-03-02T03:38:19.531Z,17.33
2023-03-02T03:48:20.724Z,17.23
2023-03-02T03:58:21.989Z,17.63
2023-03-02T04:08:23.231Z,15.85
2023-03-02T04:18:24.447Z,17.73
2023-03-02T04:28:25.702Z,17.75
2023-03-02T04:38:29.668Z,18.75
2023-03-02T04:58:32.510Z,16.95
2023-03-02T05:08:33.740Z,16.58
2023-03-02T05:18:34.945Z,16.27
2023-03-02T05:28:36.168Z,16.88
2023-03-02T05:38:37.396Z,15.90
2023-03-02T05:48:38.667Z,16.63
2023-03-02T05:58:39.866Z,17.38
2023-03-02T06:08:41.282Z,15.68
2023-03-02T06:18:42.564Z,17.08
2023-03-02T06:28:52.085Z,17.00
2023-03-02T06:38:53.685Z,17.10
2023-03-02T06:48:54.930Z,16.90
2023-03-02T06:58:56.179Z,16.67
2023-03-02T07:08:57.409Z,17.38
2023-03-02T07:18:58.608Z,17.52
2023-03-02T07:28:59.812Z,18.35
2023-03-02T07:39:01.229Z,16.15
2023-03-02T07:49:02.559Z,16.58
2023-03-02T07:59:03.814Z,16.73
2023-03-02T08:09:05.079Z,17.25
2023-03-02T08:19:06.311Z,16.55
2023-03-02T08:29:07.618Z,18.60
2023-03-02T08:39:08.882Z,19.48
2023-03-02T08:49:10.162Z,17.08
2023-03-02T08:59:11.383Z,17.85
2023-03-02T09:09:12.614Z,18.10
2023-03-02T09:19:13.839Z,18.83
2023-03-02T09:29:15.071Z,19.88
2023-03-02T09:39:16.566Z,20.25
2023-03-02T09:49:17.780Z,19.92
2023-03-02T09:59:19.068Z,19.52
2023-03-02T10:09:20.271Z,18.65
2023-03-02T10:19:21.466Z,19.30
2023-03-02T10:29:22.683Z,20.25
2023-03-02T10:39:24.207Z,19.27
2023-03-02T10:49:25.508Z,19.40
2023-03-02T10:59:27.088Z,18.70
2023-03-02T11:09:28.351Z,20.20
2023-03-02T11:19:29.580Z,18.92
2023-03-02T11:29:30.825Z,18.38
2023-03-02T11:39:32.278Z,21.80
2023-03-02T11:49:33.498Z,18.83
2023-03-02T11:59:35.301Z,18.88
2023-03-02T12:09:36.598Z,18.23
2023-03-02T12:19:37.810Z,17.80
2023-03-02T12:29:40.195Z,17.88
2023-03-02T12:39:41.660Z,18.67
2023-03-02T12:49:43.045Z,18.35
2023-03-02T12:59:44.293Z,18.17
2023-03-02T13:09:56.149Z,17.02
2023-03-02T13:19:58.303Z,16.27
2023-03-02T13:29:59.521Z,16.10
2023-03-02T13:40:01.017Z,17.45
2023-03-02T13:50:02.311Z,16.58
2023-03-02T14:00:03.793Z,17.05
2023-03-02T14:10:05.050Z,16.10
2023-03-02T14:20:06.297Z,16.13
2023-03-02T14:30:07.537Z,16.60
2023-03-02T14:40:08.806Z,16.38
2023-03-02T14:50:10.301Z,18.33
2023-03-02T15:00:11.535Z,18.50
2023-03-02T15:10:12.835Z,17.40
2023-03-02T15:20:14.044Z,17.55
2023-03-02T15:30:15.280Z,16.63
2023-03-02T15:40:16.574Z,18.15
2023-03-02T15:50:17.799Z,17.63
2023-03-02T16:00:19.090Z,17.90
2023-03-02T16:10:21.085Z,19.67
2023-03-02T16:20:22.499Z,19.25
2023-03-02T16:30:23.833Z,18.80
2023-03-02T16:40:25.189Z,18.45
2023-03-02T16:50:26.404Z,19.30
2023-03-02T17:00:27.816Z,19.33
2023-03-02T17:10:29.099Z,20.10
2023-03-02T17:20:30.400Z,19.95
2023-03-02T17:30:31.628Z,20.00
2023-03-02T17:40:33.029Z,20.67
2023-03-02T17:50:34.297Z,21.05
2023-03-02T18:00:35.550Z,23.20
2023-03-02T18:10:36.862Z,21.20
2023-03-02T18:20:38.119Z,22.88
2023-03-02T18:30:39.362Z,22.65
2023-03-02T18:40:40.681Z,22.55
2023-03-02T18:50:42.513Z,22.13
2023-03-02T19:00:43.949Z,22.92
2023-03-02T19:10:45.248Z,24.77
2023-03-02T19:20:46.476Z,22.60
2023-03-02T19:30:47.707Z,23.08
2023-03-02T19:40:49.025Z,24.75
2023-03-02T19:50:51.465Z,23.88
2023-03-02T20:00:52.719Z,26.20
2023-03-02T20:10:54.047Z,24.15
2023-03-02T20:20:55.354Z,25.08
2023-03-02T20:30:56.733Z,26.75
2023-03-02T20:40:58.224Z,26.30
2023-03-02T20:50:59.449Z,27.83
2023-03-02T21:01:00.860Z,28.35
2023-03-02T21:11:02.185Z,27.15
2023-03-02T21:21:03.412Z,28.42
2023-03-02T21:31:04.778Z,29.10
2023-03-02T21:41:06.225Z,30.27
2023-03-02T21:51:07.444Z,27.98
2023-03-02T22:01:08.727Z,26.25
2023-03-02T22:11:09.976Z,27.98
2023-03-02T22:21:11.234Z,30.60
2023-03-02T22:31:12.500Z,28.63
2023-03-02T22:41:13.979Z,29.80
2023-03-02T22:51:15.205Z,28.48
2023-03-02T23:01:16.494Z,29.02
2023-03-02T23:11:17.890Z,29.40
2023-03-02T23:21:19.722Z,32.50
2023-03-02T23:31:21.359Z,28.58
2023-03-02T23:41:22.788Z,29.40
